Portada
METAR-TAF:

METAR-TAF

Aeroports :

Talara, Perú

latitud: 04-34S, longitud: 081-15W, altitud: 85 m

Observació

L'informe es va fer fa 8 hores i 22 minuts, a les 23:00 UTC
Vent 12 kt del Sud
Temperatura 23°C
Humitat 69%
Pressió 1011 hPa
Visibilitat 10 km o més
sense núvols per sota de 1500 mi sense presència de cumulonimbus.

METAR: SPYL 142300Z 18012KT CAVOK 23/17 Q1011 RMK BIRD HAZARD RWY 17/35 PP000

Hora: 02:22 (07:22 UTC)

Pronòstic

L'informe es va fer fa 14 hores i 22 minuts, a les 17:00 UTC
Pronòstic vàlid del 14 a les 18 UTC al 15 a les 18 UTC
Vent 15 kt del Sud-Oest
Visibilitat 10 km o més
sense núvols per sota de 1500 mi sense presència de cumulonimbus.
Evolucionant progressivament
l' 15 a les 09 UTC al 15 a les 11 UTC
Vent 18 kt del Sud/Sud-Est
Núvols disperses a una alçada de 1500 ft

TAF: SPYL 141700Z 1418/1518 23015KT CAVOK TX30/1419Z TN22/1511Z BECMG 1509/1511 16018KT SCT015

Observacions i pronòstics meteorològics de més de 4000 aeroports (METAR i TAF).

Les estacions disponibles són els punts grocs i vermells al mapa.

Posi el ratolí al punt desitjat per veure el nom de l'estació.

Feu clic per veure les observacions i els pronòstics meteorològics.

Per canviar el mapa: feu clic els botons verds amb una creu de color negre per apropar; al botó verd amb un guió per allunyar la imatge; o en les fletxes verdes per a mapes adjacents.


METAR-TAF: